createdAt,value
2023-03-04T00:01:31.642Z,100.00
2023-03-04T00:03:59.722Z,100.00
2023-03-04T00:06:28.091Z,100.00
2023-03-04T00:08:56.343Z,100.00
2023-03-04T00:11:25.009Z,100.00
2023-03-04T00:13:53.276Z,100.00
2023-03-04T00:16:21.418Z,100.00
2023-03-04T00:18:49.295Z,100.00
2023-03-04T00:21:17.231Z,100.00
2023-03-04T00:23:45.331Z,100.00
2023-03-04T00:26:13.708Z,100.00
2023-03-04T00:28:43.438Z,100.00
2023-03-04T00:31:12.264Z,100.00
2023-03-04T00:33:40.579Z,100.00
2023-03-04T00:36:08.695Z,100.00
2023-03-04T00:38:36.975Z,100.00
2023-03-04T00:41:05.208Z,100.00
2023-03-04T00:43:33.237Z,100.00
2023-03-04T00:46:01.330Z,100.00
2023-03-04T00:48:31.170Z,100.00
2023-03-04T00:50:59.219Z,100.00
2023-03-04T00:53:27.366Z,100.00
2023-03-04T00:55:55.388Z,100.00
2023-03-04T00:58:23.289Z,100.00
2023-03-04T01:00:51.385Z,100.00
2023-03-04T01:03:19.806Z,100.00
2023-03-04T01:05:47.788Z,100.00
2023-03-04T01:08:15.814Z,100.00
2023-03-04T01:10:44.892Z,100.00
2023-03-04T01:13:13.494Z,100.00
2023-03-04T01:15:41.562Z,100.00
2023-03-04T01:18:10.015Z,100.00
2023-03-04T01:20:38.227Z,100.00
2023-03-04T01:23:06.265Z,100.00
2023-03-04T01:25:34.464Z,100.00
2023-03-04T01:28:02.589Z,100.00
2023-03-04T01:30:30.736Z,100.00
2023-03-04T01:32:58.829Z,100.00
2023-03-04T01:35:26.851Z,100.00
2023-03-04T01:37:54.947Z,100.00
2023-03-04T01:40:22.939Z,100.00
2023-03-04T01:42:51.116Z,100.00
2023-03-04T01:45:20.347Z,100.00
2023-03-04T01:47:50.048Z,100.00
2023-03-04T01:50:23.117Z,100.00
2023-03-04T01:52:51.296Z,100.00
2023-03-04T01:55:21.729Z,100.00
2023-03-04T01:57:51.845Z,100.00
2023-03-04T02:00:27.954Z,100.00
2023-03-04T02:03:24.776Z,100.00
2023-03-04T02:05:53.925Z,100.00
2023-03-04T02:08:24.879Z,100.00
2023-03-04T02:10:54.265Z,100.00
2023-03-04T02:13:23.407Z,100.00
2023-03-04T02:15:53.130Z,100.00
2023-03-04T02:18:23.990Z,100.00
2023-03-04T02:21:19.857Z,100.00
2023-03-04T02:24:06.514Z,100.00
2023-03-04T02:26:39.961Z,100.00
2023-03-04T02:29:10.823Z,100.00
2023-03-04T02:31:43.287Z,100.00
2023-03-04T02:34:17.441Z,100.00
2023-03-04T02:36:46.907Z,100.00
2023-03-04T02:39:22.137Z,100.00
2023-03-04T02:41:54.407Z,100.00
2023-03-04T02:44:29.112Z,100.00
2023-03-04T02:46:59.229Z,100.00
2023-03-04T02:49:29.559Z,100.00
2023-03-04T02:52:01.751Z,100.00
2023-03-04T02:54:30.073Z,100.00
2023-03-04T02:57:01.518Z,100.00
2023-03-04T02:59:30.459Z,100.00
2023-03-04T03:01:58.990Z,100.00
2023-03-04T03:04:27.825Z,100.00
2023-03-04T03:06:56.174Z,100.00
2023-03-04T03:09:24.225Z,100.00
2023-03-04T03:11:52.268Z,100.00
2023-03-04T03:14:21.104Z,100.00
2023-03-04T03:16:49.150Z,100.00
2023-03-04T03:19:17.128Z,100.00
2023-03-04T03:21:45.079Z,100.00
2023-03-04T03:24:13.214Z,100.00
2023-03-04T03:26:45.559Z,100.00
2023-03-04T03:29:13.730Z,100.00
2023-03-04T03:31:41.822Z,100.00
2023-03-04T03:34:09.987Z,100.00
2023-03-04T03:36:38.168Z,100.00
2023-03-04T03:39:06.337Z,100.00
2023-03-04T03:41:34.657Z,100.00
2023-03-04T03:44:02.824Z,100.00
2023-03-04T03:46:30.884Z,100.00
2023-03-04T03:48:58.916Z,100.00
2023-03-04T03:51:26.917Z,100.00
2023-03-04T03:53:54.810Z,100.00
2023-03-04T03:56:22.700Z,100.00
2023-03-04T03:58:50.866Z,100.00
2023-03-04T04:05:24.947Z,100.00
2023-03-04T04:07:54.175Z,100.00
2023-03-04T04:10:22.179Z,100.00
2023-03-04T04:12:50.226Z,100.00
2023-03-04T04:15:19.325Z,100.00
2023-03-04T04:17:47.288Z,100.00
2023-03-04T04:20:15.482Z,100.00
2023-03-04T04:22:43.962Z,100.00
2023-03-04T04:25:11.930Z,100.00
2023-03-04T04:27:39.965Z,100.00
2023-03-04T04:34:34.821Z,100.00
2023-03-04T04:37:02.819Z,100.00
2023-03-04T04:39:30.767Z,100.00
2023-03-04T04:41:58.662Z,100.00
2023-03-04T04:44:27.415Z,100.00
2023-03-04T04:46:55.548Z,100.00
2023-03-04T04:49:23.542Z,100.00
2023-03-04T04:51:51.504Z,100.00
2023-03-04T04:54:19.536Z,100.00
2023-03-04T04:56:47.512Z,100.00
2023-03-04T04:59:15.954Z,100.00
2023-03-04T05:01:44.019Z,100.00
2023-03-04T05:04:11.941Z,100.00
2023-03-04T05:06:40.009Z,100.00
2023-03-04T05:09:07.940Z,100.00
2023-03-04T05:11:36.007Z,100.00
2023-03-04T05:14:03.978Z,100.00
2023-03-04T05:16:32.297Z,100.00
2023-03-04T05:19:00.877Z,100.00
2023-03-04T05:21:28.947Z,100.00
2023-03-04T05:23:56.913Z,100.00
2023-03-04T05:26:24.791Z,100.00
2023-03-04T05:28:53.399Z,100.00
2023-03-04T05:31:21.518Z,100.00
2023-03-04T05:33:49.478Z,100.00
2023-03-04T05:36:17.487Z,100.00
2023-03-04T05:38:45.540Z,100.00
2023-03-04T05:41:13.551Z,100.00
2023-03-04T05:43:42.952Z,100.00
2023-03-04T05:46:15.810Z,100.00
2023-03-04T05:48:44.869Z,100.00
2023-03-04T05:51:12.735Z,100.00
2023-03-04T05:53:41.596Z,100.00
2023-03-04T05:56:11.611Z,100.00
2023-03-04T05:58:40.933Z,100.00
2023-03-04T06:01:09.918Z,100.00
2023-03-04T06:03:38.086Z,100.00
2023-03-04T06:06:06.244Z,100.00
2023-03-04T06:08:35.796Z,100.00
2023-03-04T06:11:05.692Z,100.00
2023-03-04T06:13:34.845Z,100.00
2023-03-04T06:16:02.836Z,100.00
2023-03-04T06:18:30.937Z,100.00
2023-03-04T06:21:00.791Z,100.00
2023-03-04T06:23:30.151Z,100.00
2023-03-04T06:26:00.115Z,100.00
2023-03-04T06:28:28.885Z,100.00
2023-03-04T06:30:57.802Z,100.00
2023-03-04T06:33:26.534Z,100.00
2023-03-04T06:35:56.404Z,100.00
2023-03-04T06:38:25.972Z,100.00
2023-03-04T06:40:57.209Z,100.00
2023-03-04T06:43:25.542Z,100.00
2023-03-04T06:45:53.855Z,100.00
2023-03-04T06:48:21.898Z,100.00
2023-03-04T06:50:49.907Z,100.00
2023-03-04T06:53:17.824Z,100.00
2023-03-04T06:55:46.479Z,100.00
2023-03-04T06:58:14.770Z,100.00
2023-03-04T07:00:42.755Z,100.00
2023-03-04T07:03:13.599Z,100.00
2023-03-04T07:05:42.948Z,100.00
2023-03-04T07:08:10.831Z,100.00
2023-03-04T07:10:39.296Z,100.00
2023-03-04T07:13:07.397Z,100.00
2023-03-04T07:15:36.291Z,100.00
2023-03-04T07:18:04.312Z,100.00
2023-03-04T07:20:32.605Z,100.00
2023-03-04T07:23:00.526Z,100.00
2023-03-04T07:25:28.496Z,100.00
2023-03-04T07:27:56.457Z,100.00
2023-03-04T07:30:24.291Z,100.00
2023-03-04T07:32:52.427Z,100.00
2023-03-04T07:35:20.491Z,100.00
2023-03-04T07:37:48.553Z,100.00
2023-03-04T07:40:16.978Z,100.00
2023-03-04T07:42:49.905Z,100.00
2023-03-04T07:45:18.380Z,100.00
2023-03-04T07:47:46.581Z,100.00
2023-03-04T07:50:17.547Z,100.00
2023-03-04T07:52:48.189Z,100.00
2023-03-04T07:55:17.232Z,100.00
2023-03-04T07:57:48.313Z,100.00
2023-03-04T08:00:17.705Z,100.00
2023-03-04T08:02:45.683Z,100.00
2023-03-04T08:05:14.205Z,100.00
2023-03-04T08:07:42.232Z,100.00
2023-03-04T08:10:10.969Z,100.00
2023-03-04T08:12:40.653Z,100.00
2023-03-04T08:15:09.080Z,100.00
2023-03-04T08:17:38.228Z,100.00
2023-03-04T08:20:06.776Z,100.00
2023-03-04T08:22:34.927Z,100.00
2023-03-04T08:25:03.996Z,100.00
2023-03-04T08:27:31.917Z,100.00
2023-03-04T08:29:59.898Z,100.00
2023-03-04T08:32:28.706Z,100.00
2023-03-04T08:34:57.066Z,100.00
2023-03-04T08:37:25.128Z,100.00
2023-03-04T08:39:53.098Z,100.00
2023-03-04T08:42:21.138Z,100.00
2023-03-04T08:44:49.329Z,100.00
2023-03-04T08:47:17.306Z,100.00
2023-03-04T08:49:45.231Z,100.00
2023-03-04T08:52:13.310Z,100.00
2023-03-04T08:54:41.443Z,100.00
2023-03-04T08:57:09.363Z,100.00
2023-03-04T08:59:38.577Z,100.00
2023-03-04T09:02:07.113Z,100.00
2023-03-04T09:04:35.472Z,100.00
2023-03-04T09:07:04.264Z,100.00
2023-03-04T09:09:32.173Z,100.00
2023-03-04T09:12:00.126Z,100.00
2023-03-04T09:14:28.813Z,100.00
2023-03-04T09:16:56.789Z,100.00
2023-03-04T09:19:24.790Z,100.00
2023-03-04T09:21:52.681Z,100.00
2023-03-04T09:24:20.467Z,100.00
2023-03-04T09:26:52.286Z,100.00
2023-03-04T09:29:21.147Z,100.00
2023-03-04T09:31:49.052Z,100.00
2023-03-04T09:34:16.962Z,100.00
2023-03-04T09:36:44.987Z,100.00
2023-03-04T09:39:12.806Z,100.00
2023-03-04T09:41:44.735Z,100.00
2023-03-04T09:44:43.585Z,100.00
2023-03-04T09:47:14.859Z,100.00
2023-03-04T09:49:45.805Z,100.00
2023-03-04T09:52:58.442Z,100.00
2023-03-04T09:55:33.983Z,100.00
2023-03-04T09:58:17.151Z,100.00
2023-03-04T10:00:52.150Z,100.00
2023-03-04T10:03:24.689Z,100.00
2023-03-04T10:06:06.208Z,100.00
2023-03-04T10:08:42.545Z,100.00
2023-03-04T10:11:24.836Z,100.00
2023-03-04T10:14:11.688Z,100.00
2023-03-04T10:16:51.890Z,100.00
2023-03-04T10:19:46.968Z,100.00
2023-03-04T10:22:21.013Z,100.00
2023-03-04T10:24:49.405Z,100.00
2023-03-04T10:27:19.808Z,100.00
2023-03-04T10:29:49.108Z,100.00
2023-03-04T10:32:19.672Z,100.00
2023-03-04T10:34:47.782Z,100.00
2023-03-04T10:37:15.795Z,100.00
2023-03-04T10:39:45.996Z,100.00
2023-03-04T10:42:13.879Z,100.00
2023-03-04T10:44:44.905Z,100.00
2023-03-04T10:47:14.283Z,100.00
2023-03-04T10:49:54.166Z,100.00
2023-03-04T10:52:32.504Z,100.00
2023-03-04T10:55:29.915Z,100.00
2023-03-04T10:58:04.982Z,100.00
2023-03-04T11:04:36.303Z,100.00
2023-03-04T11:07:10.689Z,100.00
2023-03-04T11:09:40.265Z,100.00
2023-03-04T11:12:17.218Z,100.00
2023-03-04T11:14:50.951Z,100.00
2023-03-04T11:17:25.221Z,100.00
2023-03-04T11:20:21.011Z,100.00
2023-03-04T11:22:51.063Z,100.00
2023-03-04T11:25:27.745Z,100.00
2023-03-04T11:28:00.200Z,100.00
2023-03-04T11:30:42.893Z,100.00
2023-03-04T11:33:17.119Z,100.00
2023-03-04T11:36:04.125Z,100.00
2023-03-04T11:38:39.320Z,100.00
2023-03-04T11:41:19.325Z,100.00
2023-03-04T11:43:47.407Z,100.00
2023-03-04T11:46:46.151Z,100.00
2023-03-04T11:49:32.910Z,100.00
2023-03-04T11:52:29.569Z,100.00
2023-03-04T11:55:28.318Z,100.00
2023-03-04T11:58:04.066Z,100.00
2023-03-04T12:00:38.228Z,100.00
2023-03-04T12:03:39.673Z,100.00
2023-03-04T12:06:30.194Z,100.00
2023-03-04T12:09:18.168Z,100.00
2023-03-04T12:12:25.189Z,100.00
2023-03-04T12:15:15.089Z,100.00
2023-03-04T12:17:57.879Z,100.00
2023-03-04T12:20:42.146Z,100.00
2023-03-04T12:23:28.203Z,100.00
2023-03-04T12:26:06.315Z,100.00
2023-03-04T12:28:54.970Z,100.00
2023-03-04T12:31:42.521Z,100.00
2023-03-04T12:34:22.479Z,100.00
2023-03-04T12:37:13.185Z,100.00
2023-03-04T12:39:58.813Z,100.00
2023-03-04T12:43:01.036Z,100.00
2023-03-04T12:45:28.916Z,100.00
2023-03-04T12:48:24.161Z,100.00
2023-03-04T12:51:09.712Z,100.00
2023-03-04T12:54:06.536Z,100.00
2023-03-04T12:56:44.857Z,100.00
2023-03-04T12:59:18.773Z,100.00
2023-03-04T13:01:56.430Z,100.00
2023-03-04T13:04:29.637Z,100.00
2023-03-04T13:06:57.650Z,100.00
2023-03-04T13:09:31.997Z,100.00
2023-03-04T13:12:16.002Z,100.00
2023-03-04T13:15:08.824Z,100.00
2023-03-04T13:17:44.071Z,100.00
2023-03-04T13:20:23.324Z,100.00
2023-03-04T13:22:59.716Z,100.00
2023-03-04T13:25:27.733Z,100.00
2023-03-04T13:28:11.043Z,100.00
2023-03-04T13:30:39.071Z,100.00
2023-03-04T13:33:16.095Z,100.00
2023-03-04T13:35:47.055Z,100.00
2023-03-04T13:38:21.294Z,100.00
2023-03-04T13:41:07.508Z,100.00
2023-03-04T13:43:46.554Z,100.00
2023-03-04T13:46:20.816Z,100.00
2023-03-04T13:48:52.004Z,100.00
2023-03-04T13:51:49.015Z,100.00
2023-03-04T13:54:29.118Z,100.00
2023-03-04T13:57:00.422Z,100.00
2023-03-04T13:59:50.497Z,100.00
2023-03-04T14:02:22.820Z,100.00
2023-03-04T14:04:53.706Z,100.00
2023-03-04T14:07:32.201Z,100.00
2023-03-04T14:10:11.979Z,100.00
2023-03-04T14:13:06.476Z,100.00
2023-03-04T14:15:35.426Z,100.00
2023-03-04T14:18:05.805Z,100.00
2023-03-04T14:20:36.964Z,100.00
2023-03-04T14:23:36.267Z,100.00
2023-03-04T14:26:15.766Z,100.00
2023-03-04T14:28:52.877Z,100.00
2023-03-04T14:31:24.246Z,100.00
2023-03-04T14:33:59.901Z,100.00
2023-03-04T14:36:35.872Z,100.00
2023-03-04T14:39:06.862Z,100.00
2023-03-04T14:41:39.437Z,100.00
2023-03-04T14:44:11.695Z,100.00
2023-03-04T14:46:56.881Z,100.00
2023-03-04T14:49:35.755Z,100.00
2023-03-04T14:52:05.066Z,100.00
2023-03-04T14:54:38.293Z,100.00
2023-03-04T14:57:26.522Z,100.00
2023-03-04T14:59:54.851Z,100.00
2023-03-04T15:02:33.789Z,100.00
2023-03-04T15:05:16.894Z,100.00
2023-03-04T15:07:51.962Z,100.00
2023-03-04T15:10:24.650Z,100.00
2023-03-04T15:12:55.524Z,100.00
2023-03-04T15:15:33.076Z,100.00
2023-03-04T15:18:26.473Z,100.00
2023-03-04T15:21:00.932Z,100.00
2023-03-04T15:23:31.495Z,100.00
2023-03-04T15:26:02.529Z,100.00
2023-03-04T15:28:36.509Z,100.00
2023-03-04T15:31:05.967Z,100.00
2023-03-04T15:33:34.307Z,100.00
2023-03-04T15:36:03.444Z,100.00
2023-03-04T15:38:31.777Z,100.00
2023-03-04T15:40:59.940Z,100.00
2023-03-04T15:43:28.022Z,100.00
2023-03-04T15:45:56.013Z,100.00
2023-03-04T15:48:24.076Z,100.00
2023-03-04T15:50:58.191Z,99.31
2023-03-04T15:53:32.870Z,95.08
2023-03-04T15:56:02.218Z,89.35
2023-03-04T15:58:34.884Z,84.16
2023-03-04T16:01:03.890Z,84.06
2023-03-04T16:03:32.359Z,82.85
2023-03-04T16:06:00.438Z,79.25
2023-03-04T16:08:29.065Z,78.50
2023-03-04T16:10:57.229Z,77.77
2023-03-04T16:13:25.290Z,78.59
2023-03-04T16:15:53.457Z,78.00
2023-03-04T16:18:21.581Z,73.35
2023-03-04T16:20:51.156Z,71.19
2023-03-04T16:23:23.257Z,71.55
2023-03-04T16:25:53.994Z,72.92
2023-03-04T16:28:22.396Z,73.02
2023-03-04T16:30:50.577Z,72.00
2023-03-04T16:33:18.645Z,70.49
2023-03-04T16:35:47.416Z,66.72
2023-03-04T16:38:33.245Z,65.14
2023-03-04T16:41:02.202Z,68.63
2023-03-04T16:43:30.381Z,67.80
2023-03-04T16:45:58.640Z,68.29
2023-03-04T16:48:26.669Z,66.41
2023-03-04T16:50:57.365Z,66.72
2023-03-04T16:53:28.043Z,68.26
2023-03-04T16:55:58.431Z,68.00
2023-03-04T16:58:26.458Z,67.60
2023-03-04T17:00:55.044Z,65.32
2023-03-04T17:03:23.017Z,66.32
2023-03-04T17:05:51.109Z,64.58
2023-03-04T17:08:18.979Z,62.51
2023-03-04T17:10:48.979Z,65.07
2023-03-04T17:13:16.913Z,64.33
2023-03-04T17:15:46.921Z,64.92
2023-03-04T17:18:14.917Z,63.25
2023-03-04T17:20:42.979Z,64.20
2023-03-04T17:23:11.104Z,62.55
2023-03-04T17:25:39.148Z,62.31
2023-03-04T17:28:07.109Z,63.61
2023-03-04T17:30:35.098Z,63.04
2023-03-04T17:33:03.199Z,63.24
2023-03-04T17:35:31.113Z,62.55
2023-03-04T17:37:59.048Z,61.99
2023-03-04T17:40:27.013Z,62.07
2023-03-04T17:42:55.567Z,63.23
2023-03-04T17:45:23.612Z,60.74
2023-03-04T17:47:52.609Z,61.57
2023-03-04T17:50:21.385Z,59.82
2023-03-04T17:52:49.243Z,60.17
2023-03-04T17:55:17.192Z,62.24
2023-03-04T17:57:45.040Z,61.90
2023-03-04T18:00:13.667Z,61.88
2023-03-04T18:02:41.496Z,60.33
2023-03-04T18:05:11.544Z,61.43
2023-03-04T18:07:39.534Z,61.76
2023-03-04T18:10:07.871Z,62.66
2023-03-04T18:12:35.877Z,61.87
2023-03-04T18:15:04.049Z,62.65
2023-03-04T18:17:32.187Z,62.72
2023-03-04T18:20:01.740Z,60.77
2023-03-04T18:22:31.747Z,61.01
2023-03-04T18:24:59.831Z,60.78
2023-03-04T18:27:28.041Z,60.86
2023-03-04T18:29:56.803Z,60.94
2023-03-04T18:32:25.319Z,60.84
2023-03-04T18:34:54.764Z,60.38
2023-03-04T18:37:22.741Z,60.25
2023-03-04T18:39:50.846Z,61.30
2023-03-04T18:42:18.812Z,61.62
2023-03-04T18:44:46.866Z,61.70
2023-03-04T18:47:14.795Z,61.29
2023-03-04T18:49:45.790Z,60.74
2023-03-04T18:52:14.656Z,60.69
2023-03-04T18:54:42.609Z,59.91
2023-03-04T18:57:13.776Z,60.19
2023-03-04T18:59:49.287Z,60.51
2023-03-04T19:04:36.911Z,59.48
2023-03-04T19:07:04.932Z,59.62
2023-03-04T19:09:32.830Z,59.52
2023-03-04T19:12:03.027Z,59.84
2023-03-04T19:14:31.136Z,59.66
2023-03-04T19:16:59.124Z,59.73
2023-03-04T19:19:27.186Z,60.04
2023-03-04T19:21:55.347Z,60.50
2023-03-04T19:24:24.323Z,59.77
2023-03-04T19:26:53.269Z,59.84
2023-03-04T19:29:21.260Z,59.77
2023-03-04T19:31:49.372Z,60.32
2023-03-04T19:34:18.480Z,60.52
2023-03-04T19:36:46.440Z,60.34
2023-03-04T19:39:15.747Z,59.88
2023-03-04T19:41:44.238Z,60.12
2023-03-04T19:44:12.249Z,60.72
2023-03-04T19:46:40.542Z,60.26
2023-03-04T19:49:10.252Z,60.23
2023-03-04T19:51:38.418Z,60.56
2023-03-04T19:54:06.449Z,60.29
2023-03-04T19:56:34.387Z,59.86
2023-03-04T19:59:02.590Z,59.98
2023-03-04T20:01:33.482Z,60.15
2023-03-04T20:04:06.324Z,60.19
2023-03-04T20:06:40.225Z,60.39
2023-03-04T20:09:08.469Z,60.59
2023-03-04T20:11:44.206Z,60.57
2023-03-04T20:14:16.219Z,60.89
2023-03-04T20:16:44.171Z,61.19
2023-03-04T20:19:12.294Z,61.26
2023-03-04T20:21:40.487Z,61.14
2023-03-04T20:24:08.600Z,61.17
2023-03-04T20:26:39.508Z,61.38
2023-03-04T20:29:07.832Z,61.52
2023-03-04T20:31:39.392Z,61.58
2023-03-04T20:34:08.768Z,61.59
2023-03-04T20:36:38.645Z,62.30
2023-03-04T20:39:26.890Z,61.83
2023-03-04T20:41:59.404Z,61.79
2023-03-04T20:44:28.347Z,62.19
2023-03-04T20:46:56.779Z,62.09
2023-03-04T20:49:27.333Z,62.30
2023-03-04T20:52:00.690Z,62.57
2023-03-04T20:54:30.621Z,62.60
2023-03-04T20:56:59.868Z,62.52
2023-03-04T20:59:28.137Z,62.46
2023-03-04T21:01:56.502Z,62.78
2023-03-04T21:04:24.709Z,62.71
2023-03-04T21:06:53.661Z,62.88
2023-03-04T21:09:23.060Z,63.10
2023-03-04T21:11:51.559Z,63.27
2023-03-04T21:14:23.105Z,63.19
2023-03-04T21:16:54.512Z,63.41
2023-03-04T21:19:25.818Z,63.29
2023-03-04T21:21:55.344Z,63.70
2023-03-04T21:24:26.370Z,63.54
2023-03-04T21:26:54.246Z,63.66
2023-03-04T21:29:24.820Z,63.82
2023-03-04T21:32:09.685Z,64.13
2023-03-04T21:34:49.292Z,64.20
2023-03-04T21:37:17.793Z,64.34
2023-03-04T21:42:18.756Z,64.48
2023-03-04T21:44:50.149Z,64.68
2023-03-04T21:47:20.798Z,64.77
2023-03-04T21:49:49.030Z,64.82
2023-03-04T21:52:18.612Z,64.72
2023-03-04T21:54:47.735Z,64.97
2023-03-04T21:57:15.971Z,64.93
2023-03-04T21:59:44.366Z,65.18
2023-03-04T22:02:18.075Z,65.22
2023-03-04T22:05:06.422Z,65.22
2023-03-04T22:07:34.828Z,65.42
2023-03-04T22:10:07.223Z,65.58
2023-03-04T22:12:35.242Z,65.43
2023-03-04T22:15:03.325Z,65.58
2023-03-04T22:17:33.781Z,65.82
2023-03-04T22:20:02.715Z,65.86
2023-03-04T22:22:31.119Z,65.83
2023-03-04T22:25:00.277Z,66.08
2023-03-04T22:27:28.197Z,66.07
2023-03-04T22:29:56.181Z,66.22
2023-03-04T22:32:24.193Z,66.25
2023-03-04T22:34:52.170Z,66.46
2023-03-04T22:37:20.054Z,66.68
2023-03-04T22:39:48.824Z,66.77
2023-03-04T22:42:16.637Z,66.88
2023-03-04T22:44:45.050Z,67.01
2023-03-04T22:47:13.125Z,67.30
2023-03-04T22:49:41.646Z,67.47
2023-03-04T22:52:09.611Z,67.30
2023-03-04T22:54:37.469Z,67.53
2023-03-04T22:57:05.479Z,67.37
2023-03-04T22:59:33.424Z,67.49
2023-03-04T23:02:01.677Z,67.55
2023-03-04T23:04:30.119Z,67.54
2023-03-04T23:06:58.232Z,67.76
2023-03-04T23:09:26.289Z,67.79
2023-03-04T23:11:55.615Z,67.76
2023-03-04T23:14:23.589Z,67.69
2023-03-04T23:16:51.695Z,67.79
2023-03-04T23:19:19.697Z,67.97
2023-03-04T23:21:47.781Z,68.33
2023-03-04T23:24:15.769Z,68.42
2023-03-04T23:26:43.899Z,68.50
2023-03-04T23:29:15.102Z,69.03
2023-03-04T23:31:44.319Z,69.12
2023-03-04T23:34:13.783Z,69.05
2023-03-04T23:36:42.324Z,69.14
2023-03-04T23:39:12.832Z,69.33
2023-03-04T23:41:40.911Z,69.80
2023-03-04T23:44:12.567Z,69.68
2023-03-04T23:46:41.268Z,69.72
2023-03-04T23:49:13.153Z,69.93
2023-03-04T23:51:41.259Z,69.95
2023-03-04T23:54:09.291Z,70.11
2023-03-04T23:56:37.269Z,70.12
2023-03-04T23:59:07.676Z,70.36
